Flight Track Log - Related Links

Times and Time Zones

All times are in EDT time to prevent confusion due to time zone crossing. See the AWE1200 flight status page for this flight to view local times or setup timezone preferences in your user account.

Time Position Orientation Groundspeed Altitude Reporting Facility
EDT Latitude Longitude Course Direction KTS MPH feet Rate Location/Type
Fri 03:21:37 AM 33.4333 -112.0500 270° West 188 216 2,400  Level Phoenix TRACON
Fri 03:22:25 AM 33.4333 -112.1000 270° West 205 236 3,100 750 Climbing Phoenix TRACON
Fri 03:23:13 AM 33.4325 -112.1450 269° West 217 250 3,600 1,056 Climbing Albuquerque Center
Fri 03:24:13 AM 33.4744 -112.1967 314° West 256 295 5,000 1,300 Climbing Albuquerque Center
Fri 03:25:13 AM 33.5414 -112.1597 25° Northeast 279 321 6,200 1,400 Climbing Albuquerque Center
Fri 03:26:13 AM 33.5581 -112.0681 78° East 284 327 7,800 1,488 Climbing Albuquerque Center
Fri 03:27:14 AM 33.5739 -111.9736 79° East 290 334 9,200 1,289 Climbing Albuquerque Center
Fri 03:28:14 AM 33.5897 -111.8781 79° East 294 338 10,400 900 Climbing Albuquerque Center
Fri 03:29:14 AM 33.6072 -111.7744 79° East 318 366 11,000 645 Climbing Albuquerque Center
Fri 03:30:15 AM 33.6294 -111.6356 79° East 357 411 11,700 942 Climbing Albuquerque Center
Fri 03:31:15 AM 33.6497 -111.5128 79° East 375 432 12,900 1,200 Climbing Albuquerque Center
Fri 03:32:15 AM 33.6700 -111.3881 79° East 384 442 14,100 1,250 Climbing Albuquerque Center
Fri 03:33:15 AM 33.6911 -111.2617 79° East 388 447 15,400 1,289 Climbing Albuquerque Center
Fri 03:34:16 AM 33.7347 -111.1425 66° East 390 449 16,700 1,240 Climbing Albuquerque Center
Fri 03:35:16 AM 33.7758 -111.0228 68° East 390 449 17,900 1,150 Climbing Albuquerque Center
Fri 03:36:16 AM 33.8194 -110.8989 67° East 400 460 19,000 1,041 Climbing Albuquerque Center
Fri 03:37:17 AM 33.8639 -110.7736 67° East 406 467 20,000 1,041 Climbing Albuquerque Center
Fri 03:38:17 AM 33.9081 -110.6464 67° East 411 473 21,100 1,000 Climbing Albuquerque Center
Fri 03:39:17 AM 33.9539 -110.5164 67° East 418 481 22,000 800 Climbing Albuquerque Center
Fri 03:40:17 AM 33.9983 -110.3892 67° East 427 491 22,700 694 Climbing Albuquerque Center
Fri 03:41:18 AM 34.0464 -110.2536 67° East 438 504 23,400 793 Climbing Albuquerque Center
Fri 03:42:18 AM 34.0931 -110.1153 68° East 445 512 24,300 850 Climbing Albuquerque Center
Fri 03:43:18 AM 34.1489 -109.9550 67° East 450 518 25,100 700 Climbing Albuquerque Center
Fri 03:44:18 AM 34.1953 -109.8203 67° East 454 522 25,700 694 Climbing Albuquerque Center
Fri 03:45:19 AM 34.2425 -109.6831 67° East 459 528 26,500 694 Climbing Albuquerque Center
Fri 03:46:19 AM 34.2964 -109.5206 68° East 464 534 27,100 650 Climbing Albuquerque Center
Fri 03:47:19 AM 34.3433 -109.3819 68° East 466 536 27,800 800 Climbing Albuquerque Center
Fri 03:48:19 AM 34.3906 -109.2456 67° East 464 534 28,700 843 Climbing Albuquerque Center
Fri 03:49:20 AM 34.4347 -109.1086 69° East 460 529 29,500 843 Climbing Albuquerque Center
Fri 03:50:20 AM 34.4789 -108.9456 72° East 458 527 30,400 800 Climbing Albuquerque Center
Fri 03:51:20 AM 34.5181 -108.8069 71° East 456 525 31,100 700 Climbing Albuquerque Center
Fri 03:52:20 AM 34.5550 -108.6700 72° East 453 521 31,800 744 Climbing Albuquerque Center
Fri 03:53:21 AM 34.5986 -108.5119 71° East 447 514 32,600 595 Climbing Albuquerque Center
Fri 03:54:21 AM 34.6303 -108.3950 72° East 444 511 33,000 200 Climbing Albuquerque Center
Fri 03:55:21 AM 34.6686 -108.2517 72° East 447 514 33,000  Level Albuquerque Center
Fri 03:56:21 AM 34.7067 -108.1086 72° East 445 512 33,000  Level Albuquerque Center
Fri 03:57:22 AM 34.7458 -107.9656 72° East 446 513 33,000  Level Albuquerque Center
Fri 03:58:22 AM 34.7831 -107.8222 72° East 446 513 33,000  Level Albuquerque Center
Fri 03:59:22 AM 34.8217 -107.6803 72° East 445 512 33,000  Level Albuquerque Center
Fri 04:00:23 AM 34.8583 -107.5353 73° East 447 514 33,000  Level Albuquerque Center
Fri 04:01:23 AM 34.8964 -107.3908 72° East 449 517 33,000  Level Albuquerque Center
Fri 04:02:23 AM 34.9408 -107.2169 73° East 449 517 33,000  Level Albuquerque Center
Fri 04:03:23 AM 34.9808 -107.0683 72° East 452 520 33,000  Level Albuquerque Center
Fri 04:04:24 AM 35.0161 -106.9294 73° East 449 517 33,000  Level Albuquerque Center
Fri 04:05:24 AM 35.0528 -106.7925 72° East 445 512 33,000  Level Albuquerque Center
Fri 04:06:24 AM 35.1042 -106.6592 65° Northeast 451 519 33,000  Level Albuquerque Center
Fri 04:07:24 AM 35.1586 -106.5147 65° Northeast 458 527 33,000  Level Albuquerque Center
Fri 04:08:25 AM 35.2092 -106.3747 66° East 452 520 33,000  Level Albuquerque Center
Fri 04:09:25 AM 35.2608 -106.2378 65° Northeast 446 513 33,000  Level Albuquerque Center
Fri 04:10:25 AM 35.3131 -106.0886 67° East 439 505 33,000  Level Albuquerque Center
Fri 04:11:25 AM 35.3644 -105.9500 66° East 442 509 33,000  Level Albuquerque Center
Fri 04:12:26 AM 35.4197 -105.8078 64° Northeast 455 524 33,000 50 Level Albuquerque Center
Fri 04:13:26 AM 35.4689 -105.6678 67° East 447 514 33,100  Climbing Albuquerque Center
Fri 04:14:26 AM 35.5181 -105.5275 67° East 445 512 33,000 -50 Descending Albuquerque Center
Fri 04:15:26 AM 35.5678 -105.3867 67° East 443 510 33,000  Level Albuquerque Center
Fri 04:16:27 AM 35.6192 -105.2431 66° East 451 519 33,000  Level Albuquerque Center
Fri 04:17:27 AM 35.6708 -105.0997 66° East 452 520 33,000  Level Albuquerque Center
Fri 04:18:27 AM 35.7139 -104.9814 66° East 451 519 33,000  Level Albuquerque Center
Fri 04:19:27 AM 35.7633 -104.8378 67° East 450 518 33,000  Level Albuquerque Center
Fri 04:20:27 AM 35.8144 -104.6953 66° East 449 517 33,000  Level Albuquerque Center
Fri 04:21:28 AM 35.8644 -104.5514 67° East 450 518 33,000  Level Albuquerque Center
Fri 04:22:28 AM 35.9150 -104.4086 66° East 449 517 33,000  Level Albuquerque Center
Fri 04:23:28 AM 35.9656 -104.2653 66° East 450 518 33,000  Level Albuquerque Center
Fri 04:24:28 AM 36.0150 -104.1214 67° East 450 518 33,000  Level Albuquerque Center
Fri 04:25:29 AM 36.0644 -103.9764 67° East 452 520 33,000  Level Albuquerque Center
Fri 04:26:29 AM 36.1144 -103.8306 67° East 455 524 33,000  Level Albuquerque Center
Fri 04:27:29 AM 36.1644 -103.6867 67° East 452 520 33,000  Level Albuquerque Center
Fri 04:28:29 AM 36.2142 -103.5406 67° East 454 522 33,000  Level Albuquerque Center
Fri 04:29:29 AM 36.2642 -103.3922 67° East 459 528 33,000 50 Level Albuquerque Center
Fri 04:30:30 AM 36.3136 -103.2442 67° East 460 529 33,100  Climbing Albuquerque Center
Fri 04:31:30 AM 36.3606 -103.0972 68° East 457 526 33,000 -50 Descending Albuquerque Center
Fri 04:32:30 AM 36.4103 -102.9539 67° East 451 519 33,000  Level Albuquerque Center
Fri 04:33:30 AM 36.4581 -102.8083 68° East 446 513 33,000  Level Albuquerque Center
Fri 04:34:31 AM 36.5050 -102.6650 68° East 447 514 33,000  Level Albuquerque Center
Fri 04:35:31 AM 36.5514 -102.5206 68° East 448 516 33,000 50 Level Albuquerque Center
Fri 04:36:31 AM 36.6000 -102.3728 68° East 456 525 33,100 50 Climbing Albuquerque Center
Fri 04:37:31 AM 36.6475 -102.2264 68° East 457 526 33,100 -50 Level Albuquerque Center
Fri 04:38:31 AM 36.6942 -102.0792 68° East 463 533 33,000 -50 Descending Albuquerque Center
Fri 04:39:32 AM 36.7397 -101.9389 68° East 460 529 33,000  Level Albuquerque Center
Fri 04:40:32 AM 36.7853 -101.7958 68° East 462 532 33,000  Level Albuquerque Center
Fri 04:41:32 AM 36.8383 -101.6308 68° East 462 532 33,000  Level Albuquerque Center
Fri 04:42:32 AM 36.8828 -101.4886 69° East 460 529 33,000  Level Albuquerque Center
Fri 04:43:33 AM 36.9275 -101.3467 68° East 461 531 33,000  Level Kansas City Center
Fri 04:44:33 AM 36.9708 -101.2064 69° East 456 525 33,000  Level Kansas City Center
Fri 04:45:34 AM 37.0214 -101.0444 69° East 451 519 33,000  Level Kansas City Center
Fri 04:46:34 AM 37.0764 -100.9169 62° Northeast 442 509 33,000  Level Kansas City Center
Fri 04:47:35 AM 37.1564 -100.7811 54° Northeast 436 502 33,000  Level Kansas City Center
Fri 04:48:36 AM 37.2256 -100.6619 54° Northeast 441 507 33,000 50 Level Kansas City Center
Fri 04:49:36 AM 37.2953 -100.5431 54° Northeast 444 511 33,100 50 Climbing Kansas City Center
Fri 04:50:37 AM 37.3767 -100.4022 54° Northeast 448 516 33,100  Level Kansas City Center
Fri 04:51:37 AM 37.4475 -100.2808 54° Northeast 450 518 33,100  Level Kansas City Center
Fri 04:52:38 AM 37.5172 -100.1589 54° Northeast 451 519 33,100 -50 Level Kansas City Center
Fri 04:53:38 AM 37.5997 -100.0169 54° Northeast 451 519 33,000 -50 Descending Kansas City Center
Fri 04:54:39 AM 37.6694 -99.8958 54° Northeast 449 517 33,000  Level Kansas City Center
Fri 04:55:39 AM 37.7386 -99.7731 55° Northeast 448 516 33,000  Level Kansas City Center
Fri 04:56:40 AM 37.8197 -99.6311 54° Northeast 448 516 33,000  Level Kansas City Center
Fri 04:57:41 AM 37.8886 -99.5083 55° Northeast 448 516 33,000  Level Kansas City Center
Fri 04:58:41 AM 37.9517 -99.3964 54° Northeast 451 519 33,000  Level Kansas City Center
Fri 04:59:42 AM 38.0392 -99.2392 55° Northeast 454 522 33,000  Level Kansas City Center
Fri 05:00:43 AM 38.1133 -99.1081 54° Northeast 455 524 33,000  Level Kansas City Center
Fri 05:01:44 AM 38.1869 -98.9764 55° Northeast 455 524 33,000  Level Kansas City Center
Fri 05:02:44 AM 38.2625 -98.8411 55° Northeast 455 524 33,000  Level Kansas City Center
Fri 05:03:45 AM 38.3358 -98.7100 54° Northeast 462 532 33,000  Level Kansas City Center
Fri 05:04:45 AM 38.4092 -98.5769 55° Northeast 458 527 33,000  Level Kansas City Center
Fri 05:05:46 AM 38.4831 -98.4428 55° Northeast 460 529 33,000  Level Kansas City Center
Fri 05:06:46 AM 38.5569 -98.3078 55° Northeast 460 529 33,000  Level Kansas City Center
Fri 05:07:47 AM 38.6300 -98.1717 55° Northeast 462 532 33,000  Level Kansas City Center
Fri 05:08:47 AM 38.7025 -98.0375 55° Northeast 458 527 33,000  Level Kansas City Center
Fri 05:09:48 AM 38.7761 -97.9017 55° Northeast 460 529 33,000  Level Kansas City Center
Fri 05:10:48 AM 38.8472 -97.7694 55° Northeast 456 525 33,000  Level Kansas City Center
Fri 05:11:49 AM 38.9103 -97.6339 59° Northeast 460 529 33,000  Level Kansas City Center
Fri 05:12:50 AM 38.9481 -97.4658 74° East 464 534 33,000  Level Kansas City Center
Fri 05:13:50 AM 38.9694 -97.2994 81° East 470 541 33,000  Level Kansas City Center
Fri 05:14:51 AM 38.9906 -97.1408 80° East 467 537 33,000  Level Kansas City Center
Fri 05:15:51 AM 39.0128 -96.9828 80° East 469 540 33,000  Level Kansas City Center
Fri 05:16:52 AM 39.0367 -96.7947 81° East 475 547 33,000  Level Kansas City Center
Fri 05:17:52 AM 39.0589 -96.6347 80° East 475 547 33,000  Level Kansas City Center
Fri 05:18:53 AM 39.0772 -96.4728 82° East 478 550 33,000  Level Kansas City Center
Fri 05:19:54 AM 39.1008 -96.2850 81° East 475 547 33,000  Level Kansas City Center
Fri 05:20:54 AM 39.1211 -96.1244 81° East 474 545 33,000  Level Kansas City Center
Fri 05:21:55 AM 39.1408 -95.9622 81° East 480 552 33,000  Level Kansas City Center
Fri 05:22:55 AM 39.1644 -95.7744 81° East 478 550 33,000  Level Kansas City Center
Fri 05:23:56 AM 39.1842 -95.6119 81° East 479 551 33,000 50 Level Kansas City Center
Fri 05:24:56 AM 39.2061 -95.4247 81° East 484 557 33,100  Climbing Kansas City Center
Fri 05:25:57 AM 39.2256 -95.2547 82° East 482 555 33,000 -50 Descending Kansas City Center
Fri 05:26:57 AM 39.2431 -95.1075 81° East 483 556 33,000  Level Kansas City Center
Fri 05:27:58 AM 39.2644 -94.9189 82° East 477 549 33,000  Level Kansas City Center
Fri 05:28:59 AM 39.2828 -94.7553 82° East 479 551 33,000  Level Kansas City Center
Fri 05:29:59 AM 39.3008 -94.5881 82° East 489 563 33,000  Level Kansas City Center
Fri 05:31:00 AM 39.3197 -94.3947 83° East 483 556 33,000  Level Kansas City Center
Fri 05:32:00 AM 39.3353 -94.2281 83° East 489 563 33,000  Level Kansas City Center
Fri 05:33:01 AM 39.3511 -94.0606 83° East 491 565 33,000  Level Kansas City Center
Fri 05:34:01 AM 39.3694 -93.8672 83° East 488 562 33,000  Level Kansas City Center
Fri 05:35:02 AM 39.3828 -93.7192 83° East 489 563 33,000  Level Kansas City Center
Fri 05:36:02 AM 39.3992 -93.5483 83° East 487 560 33,000  Level Kansas City Center
Fri 05:37:03 AM 39.4175 -93.3419 83° East 486 559 33,000  Level Kansas City Center
Fri 05:38:03 AM 39.4322 -93.1708 84° East 487 560 33,000  Level Kansas City Center
Fri 05:39:04 AM 39.4461 -92.9947 84° East 493 567 33,000  Level Kansas City Center
Fri 05:40:05 AM 39.4600 -92.8178 84° East 499 574 33,000  Level Kansas City Center
Fri 05:41:05 AM 39.4747 -92.6419 84° East 499 574 33,000  Level Kansas City Center
Fri 05:42:06 AM 39.4889 -92.4678 84° East 496 571 33,000  Level Kansas City Center
Fri 05:43:06 AM 39.5022 -92.2933 84° East 496 571 33,000  Level Kansas City Center
Fri 05:44:07 AM 39.5153 -92.1189 84° East 495 570 33,000  Level Kansas City Center
Fri 05:45:07 AM 39.5292 -91.9433 84° East 496 571 33,000  Level Kansas City Center
Fri 05:46:08 AM 39.5433 -91.7642 84° East 502 578 33,000  Level Kansas City Center
Fri 05:47:08 AM 39.5583 -91.5511 85° East 501 577 33,000  Level Kansas City Center
Fri 05:48:09 AM 39.5711 -91.3719 85° East 504 580 33,000  Level Kansas City Center
Fri 05:49:10 AM 39.5847 -91.1994 84° East 501 577 33,000  Level Kansas City Center
Fri 05:50:10 AM 39.5969 -91.0194 85° East 501 577 33,000  Level Kansas City Center
Fri 05:51:12 AM 39.6075 -90.8439 85° East 494 568 33,000  Level Kansas City Center
Fri 05:52:11 AM 39.6197 -90.6647 85° East 495 570 33,000  Level Kansas City Center
Fri 05:53:12 AM 39.6311 -90.4853 85° East 497 572 33,000  Level Kansas City Center
Fri 05:54:12 AM 39.6417 -90.3033 86° East 502 578 33,000  Level Kansas City Center
Fri 05:55:13 AM 39.6528 -90.1217 85° East 504 580 33,000  Level Kansas City Center
Fri 05:56:14 AM 39.6628 -89.9389 86° East 505 581 33,000  Level Kansas City Center
Fri 05:57:14 AM 39.6731 -89.7578 86° East 504 580 33,000  Level Kansas City Center
Fri 05:58:15 AM 39.6831 -89.5756 86° East 504 580 33,000  Level Kansas City Center
Fri 05:59:15 AM 39.6933 -89.3967 86° East 503 579 33,000  Level Kansas City Center
Fri 06:00:16 AM 39.7039 -89.2011 86° East 503 579 33,000  Level Kansas City Center
Fri 06:01:16 AM 39.7133 -89.0206 86° East 504 580 33,000  Level Kansas City Center
Fri 06:02:16 AM 39.7211 -88.8381 87° East 507 583 33,000  Level Kansas City Center
Fri 06:03:17 AM 39.7303 -88.6558 86° East 507 583 33,000  Level Kansas City Center
Fri 06:04:17 AM 39.7394 -88.4750 86° East 505 581 33,000  Level Kansas City Center
Fri 06:05:18 AM 39.7475 -88.2925 87° East 506 582 33,000  Level Kansas City Center
Fri 06:06:18 AM 39.7561 -88.1097 86° East 503 579 33,000  Level Kansas City Center
Fri 06:06:55 AM 39.7594 -87.9953 88° East 502 578 33,000  Level Indianapolis Center
Fri 06:07:55 AM 39.7664 -87.8142 87° East 502 578 33,000  Level Indianapolis Center
Fri 06:08:56 AM 39.7744 -87.6325 87° East 504 580 33,000  Level Indianapolis Center
Fri 06:09:57 AM 39.7806 -87.4506 87° East 506 582 33,000  Level Indianapolis Center
Fri 06:10:57 AM 39.7864 -87.2667 88° East 510 587 33,000  Level Indianapolis Center
Fri 06:11:58 AM 39.7928 -87.0831 87° East 510 587 33,000  Level Indianapolis Center
Fri 06:12:59 AM 39.7994 -86.8981 87° East 512 589 33,000  Level Indianapolis Center
Fri 06:13:59 AM 39.8056 -86.7150 87° East 509 586 33,000  Level Indianapolis Center
Fri 06:15:00 AM 39.8108 -86.5303 88° East 510 587 33,000  Level Indianapolis Center
Fri 06:16:01 AM 39.8261 -86.3469 84° East 506 582 33,000  Level Indianapolis Center
Fri 06:17:02 AM 39.8453 -86.1564 82° East 506 582 33,000  Level Indianapolis Center
Fri 06:18:02 AM 39.8622 -85.9725 83° East 507 583 33,000  Level Indianapolis Center
Fri 06:19:03 AM 39.8789 -85.7906 83° East 508 585 33,000  Level Indianapolis Center
Fri 06:20:04 AM 39.8956 -85.6061 83° East 512 589 33,000  Level Indianapolis Center
Fri 06:21:04 AM 39.9136 -85.4219 83° East 513 590 33,000  Level Indianapolis Center
Fri 06:22:05 AM 39.9292 -85.2381 84° East 511 588 33,000  Level Indianapolis Center
Fri 06:23:06 AM 39.9444 -85.0547 84° East 512 589 33,000 -50 Level Indianapolis Center
Fri 06:24:06 AM 39.9622 -84.8603 83° East 513 590 32,900  Descending Indianapolis Center
Fri 06:25:07 AM 39.9778 -84.6731 84° East 515 593 33,000 49 Climbing Indianapolis Center
Fri 06:26:08 AM 39.9933 -84.4853 84° East 517 595 33,000  Level Indianapolis Center
Fri 06:27:08 AM 40.0089 -84.2961 84° East 519 597 33,000  Level Indianapolis Center
Fri 06:28:09 AM 40.0231 -84.1078 84° East 519 597 33,000  Level Indianapolis Center
Fri 06:29:10 AM 40.0386 -83.9181 84° East 520 598 33,000  Level Indianapolis Center
Fri 06:30:11 AM 40.0531 -83.7275 84° East 519 597 33,000 -50 Level Indianapolis Center
Fri 06:31:11 AM 40.0669 -83.5367 85° East 517 595 32,900 -50 Descending Indianapolis Center
Fri 06:32:12 AM 40.0817 -83.3453 84° East 517 595 32,900  Level Indianapolis Center
Fri 06:33:13 AM 40.0947 -83.1558 85° East 516 594 32,900 49 Level Indianapolis Center
Fri 06:34:14 AM 40.1075 -82.9658 85° East 517 595 33,000 50 Climbing Indianapolis Center
Fri 06:35:14 AM 40.1206 -82.7758 85° East 519 597 33,000  Level Indianapolis Center
Fri 06:36:15 AM 40.1328 -82.5856 85° East 520 598 33,000  Level Indianapolis Center
Fri 06:37:16 AM 40.1450 -82.3958 85° East 520 598 33,000  Level Indianapolis Center
Fri 06:38:16 AM 40.1569 -82.2081 85° East 517 595 33,000 -50 Level Indianapolis Center
Fri 06:39:17 AM 40.1681 -82.0211 85° East 512 589 32,900 -49 Descending Indianapolis Center
Fri 06:40:18 AM 40.1794 -81.8328 85° East 515 593 32,900 49 Level Indianapolis Center
Fri 06:41:19 AM 40.1906 -81.6486 85° East 514 592 33,000 50 Climbing Indianapolis Center
Fri 06:42:19 AM 40.2014 -81.4589 86° East 519 597 33,000  Level Indianapolis Center
Fri 06:43:20 AM 40.2106 -81.2728 86° East 514 592 33,000  Level Indianapolis Center
Fri 06:44:08 AM 40.2222 -81.1106 85° East 511 588 33,000  Level Cleveland Center
Fri 06:45:08 AM 40.2314 -80.9258 86° East 511 588 33,000  Level Cleveland Center
Fri 06:46:08 AM 40.2422 -80.7381 86° East 516 594 33,000  Level Cleveland Center
Fri 06:47:08 AM 40.2506 -80.5558 87° East 516 594 33,000  Level Cleveland Center
Fri 06:48:08 AM 40.2567 -80.3900 87° East 516 594 33,000  Level Cleveland Center
Fri 06:49:08 AM 40.2644 -80.1914 87° East 499 574 33,000  Level Cleveland Center
Fri 06:50:08 AM 40.2700 -80.0061 88° East 504 580 33,000  Level Cleveland Center
Fri 06:51:08 AM 40.2794 -79.8403 86° East 504 580 33,000  Level Cleveland Center
Fri 06:52:08 AM 40.2886 -79.6578 86° East 498 573 33,000  Level Cleveland Center
Fri 06:53:08 AM 40.2953 -79.4753 87° East 498 573 33,000  Level Cleveland Center
Fri 06:54:08 AM 40.3014 -79.2736 88° East 498 573 33,000  Level Cleveland Center
Fri 06:55:08 AM 40.3056 -79.0911 88° East 498 573 33,000  Level Cleveland Center
Fri 06:56:08 AM 40.3239 -78.9247 82° East 504 580 33,000 -50 Level Cleveland Center
Fri 06:57:08 AM 40.3525 -78.7469 78° East 504 580 32,900 -700 Descending Cleveland Center
Fri 06:58:08 AM 40.3828 -78.5661 78° East 504 580 31,600 -2,038 Descending Cleveland Center
Fri 06:59:47 AM 40.4047 -78.2728 84° East 491 565 27,500 -2,475 Descending New York Center
Fri 07:00:48 AM 40.3858 -78.0744 97° East 484 557 25,000 -1,240 Descending New York Center
Fri 07:01:48 AM 40.3714 -77.9011 96° East 484 557 25,000  Level New York Center
Fri 07:02:49 AM 40.3544 -77.7278 97° East 484 557 25,000  Level New York Center
Fri 07:03:49 AM 40.3333 -77.5567 99° East 479 551 25,000 -298 Level New York Center
Fri 07:04:50 AM 40.3111 -77.3967 100° East 461 531 24,400 -706 Descending New York Center
Fri 07:05:48 AM 40.2917 -77.2558 100° East 448 516 23,600 -915 Descending New York Center
Fri 07:06:48 AM 40.2692 -77.0958 100° East 443 510 22,600 -1,388 Descending New York Center
Fri 07:07:49 AM 40.2500 -76.9472 100° East 430 495 20,800 -1,967 Descending New York Center
Fri 07:08:50 AM 40.2328 -76.7961 98° East 419 482 18,600 -2,118 Descending New York Center
Fri 07:09:48 AM 40.2128 -76.6558 101° East 401 461 16,600 -2,034 Descending New York Center
Fri 07:10:48 AM 40.1908 -76.5044 101° East 388 447 14,600 -1,537 Descending New York Center
Fri 07:11:49 AM 40.1725 -76.3697 100° East 388 447 13,500 -1,140 Descending New York Center
Fri 07:12:49 AM 40.1553 -76.2461 100° East 382 440 12,300 -1,190 Descending New York Center
Fri 07:13:50 AM 40.1364 -76.1142 101° East 371 427 11,100 -1,190 Descending New York Center
Fri 07:14:50 AM 40.1169 -75.9853 101° East 343 395 9,900 -1,210 Descending New York Center
Fri 07:15:49 AM 40.0992 -75.8725 102° East 324 373 8,700 -1,350 Descending New York Center
Fri 07:16:50 AM 40.0828 -75.7656 101° East 307 353 7,200 -1,311 Descending New York Center
Fri 07:17:48 AM 40.0811 -75.6569 91° East 295 339 6,100 -559 Descending New York Center
Fri 07:18:48 AM 40.0814 -75.5483 90° East 295 339 6,100  Level New York Center
Fri 07:19:48 AM 40.0858 -75.4403 87° East 289 333 6,100 -198 Level New York Center
Fri 07:20:49 AM 40.0775 -75.3339 96° East 289 333 5,700 -843 Descending New York Center
Fri 07:21:49 AM 40.0500 -75.2333 110° East 287 330 4,400 -850 Descending Philadelphia TRACON
Fri 07:22:49 AM 40.0333 -75.1333 102° East 257 296 4,000 -700 Descending Philadelphia TRACON
Fri 07:23:49 AM 39.9833 -75.0833 143° Southeast 198 228 3,000 -1,000 Descending Philadelphia TRACON

Login

Don't have an account? Register now (free) for customized features, flight alerts, and more!